createdAt,value
2019-03-28T00:01:02.377Z,11.17
2019-03-28T00:03:33.469Z,13.80
2019-03-28T00:06:06.113Z,12.80
2019-03-28T00:08:40.590Z,11.27
2019-03-28T00:11:12.719Z,12.47
2019-03-28T00:13:43.191Z,12.20
2019-03-28T00:16:16.927Z,11.93
2019-03-28T00:18:49.663Z,11.20
2019-03-28T00:21:21.488Z,13.20
2019-03-28T00:24:05.793Z,12.77
2019-03-28T00:26:39.115Z,12.27
2019-03-28T00:29:10.382Z,12.13
2019-03-28T00:31:40.919Z,13.97
2019-03-28T00:34:12.874Z,12.60
2019-03-28T00:36:43.776Z,13.57
2019-03-28T00:39:15.219Z,12.87
2019-03-28T00:41:45.895Z,14.13
2019-03-28T00:44:16.568Z,13.47
2019-03-28T00:46:47.526Z,13.80
2019-03-28T00:49:19.270Z,13.20
2019-03-28T00:51:50.377Z,13.90
2019-03-28T00:54:21.934Z,13.20
2019-03-28T00:56:53.235Z,14.87
2019-03-28T00:59:27.027Z,13.43
2019-03-28T01:01:57.522Z,13.43
2019-03-28T01:04:28.114Z,12.03
2019-03-28T01:07:02.832Z,13.10
2019-03-28T01:09:33.468Z,13.17
2019-03-28T01:12:10.072Z,10.77
2019-03-28T01:14:39.823Z,11.07
2019-03-28T01:17:11.318Z,12.37
2019-03-28T01:19:42.280Z,11.63
2019-03-28T01:22:16.565Z,12.97
2019-03-28T01:24:47.490Z,12.13
2019-03-28T01:27:18.432Z,12.40
2019-03-28T01:29:48.849Z,12.10
2019-03-28T01:32:19.261Z,12.27
2019-03-28T01:34:50.233Z,11.40
2019-03-28T01:37:21.911Z,11.27
2019-03-28T01:39:52.364Z,11.57
2019-03-28T01:42:22.760Z,11.63
2019-03-28T01:44:53.277Z,10.87
2019-03-28T01:47:23.799Z,13.47
2019-03-28T01:49:54.691Z,12.73
2019-03-28T01:52:32.457Z,13.40
2019-03-28T01:55:04.307Z,11.00
2019-03-28T01:57:35.332Z,11.30
2019-03-28T02:00:09.204Z,12.50
2019-03-28T02:02:41.849Z,11.27
2019-03-28T02:05:12.870Z,11.10
2019-03-28T02:07:46.880Z,10.57
2019-03-28T02:10:17.937Z,11.47
2019-03-28T02:12:48.313Z,9.90
2019-03-28T02:15:19.428Z,11.23
2019-03-28T02:17:50.368Z,10.80
2019-03-28T02:20:20.793Z,10.73
2019-03-28T02:22:51.412Z,11.10
2019-03-28T02:25:22.302Z,11.40
2019-03-28T02:27:59.448Z,11.50
2019-03-28T02:30:34.346Z,11.33
2019-03-28T02:33:05.857Z,11.67
2019-03-28T02:35:36.233Z,11.60
2019-03-28T02:38:07.105Z,12.00
2019-03-28T02:40:37.654Z,12.23
2019-03-28T02:43:08.171Z,12.13
2019-03-28T02:45:38.750Z,11.83
2019-03-28T02:48:09.849Z,11.17
2019-03-28T02:50:43.568Z,11.47
2019-03-28T02:53:14.575Z,11.30
2019-03-28T02:55:46.013Z,11.17
2019-03-28T02:58:16.675Z,10.63
2019-03-28T03:00:53.635Z,11.70
2019-03-28T03:03:23.281Z,10.87
2019-03-28T03:05:54.227Z,10.87
2019-03-28T03:08:28.264Z,10.97
2019-03-28T03:10:57.926Z,10.27
2019-03-28T03:13:30.230Z,8.17
2019-03-28T03:16:01.550Z,7.90
2019-03-28T03:18:36.698Z,8.03
2019-03-28T03:21:10.244Z,7.87
2019-03-28T03:23:41.257Z,7.93
2019-03-28T03:26:12.296Z,6.77
2019-03-28T03:28:42.829Z,7.00
2019-03-28T03:31:20.888Z,6.90
2019-03-28T03:33:53.467Z,8.00
2019-03-28T03:36:23.989Z,6.60
2019-03-28T03:38:54.719Z,6.97
2019-03-28T03:41:26.609Z,6.67
2019-03-28T03:43:58.900Z,6.47
2019-03-28T03:46:29.482Z,6.43
2019-03-28T03:49:03.202Z,7.77
2019-03-28T03:51:34.829Z,6.80
2019-03-28T03:54:14.513Z,6.40
2019-03-28T03:56:46.353Z,6.90
2019-03-28T03:59:19.774Z,6.50
2019-03-28T04:01:52.826Z,7.33
2019-03-28T04:04:27.774Z,6.07
2019-03-28T04:06:58.766Z,5.83
2019-03-28T04:09:29.274Z,6.30
2019-03-28T04:12:02.951Z,6.60
2019-03-28T04:14:36.349Z,6.90
2019-03-28T04:17:07.248Z,6.77
2019-03-28T04:19:37.797Z,7.27
2019-03-28T04:22:08.279Z,7.33
2019-03-28T04:24:41.135Z,7.40
2019-03-28T04:27:11.698Z,7.40
2019-03-28T04:29:42.178Z,6.67
2019-03-28T04:32:14.681Z,6.80
2019-03-28T04:34:45.169Z,7.23
2019-03-28T04:37:15.581Z,6.77
2019-03-28T04:39:49.150Z,6.80
2019-03-28T04:42:21.194Z,7.17
2019-03-28T04:44:52.552Z,7.20
2019-03-28T04:47:23.116Z,7.47
2019-03-28T04:49:56.191Z,7.20
2019-03-28T04:52:27.776Z,7.63
2019-03-28T04:54:58.878Z,7.70
2019-03-28T04:57:33.310Z,7.50
2019-03-28T05:00:04.466Z,6.87
2019-03-28T05:02:35.426Z,6.93
2019-03-28T05:05:12.474Z,6.10
2019-03-28T05:07:46.665Z,6.33
2019-03-28T05:10:20.170Z,6.23
2019-03-28T05:12:51.447Z,6.40
2019-03-28T05:15:22.211Z,6.83
2019-03-28T05:17:52.741Z,6.47
2019-03-28T05:20:24.061Z,7.83
2019-03-28T05:22:54.532Z,8.23
2019-03-28T05:25:25.083Z,8.13
2019-03-28T05:27:57.594Z,7.77
2019-03-28T05:30:30.623Z,7.97
2019-03-28T05:33:01.283Z,8.27
2019-03-28T05:35:31.914Z,7.17
2019-03-28T05:38:02.649Z,7.90
2019-03-28T05:40:33.960Z,8.37
2019-03-28T05:43:08.496Z,8.37
2019-03-28T05:45:39.042Z,9.03
2019-03-28T05:48:09.965Z,9.70
2019-03-28T05:50:40.540Z,8.63
2019-03-28T05:53:11.503Z,9.17
2019-03-28T05:55:42.309Z,9.17
2019-03-28T05:58:14.019Z,9.40
2019-03-28T06:00:51.199Z,9.53
2019-03-28T06:03:19.903Z,9.63
2019-03-28T06:05:54.741Z,9.63
2019-03-28T06:08:25.333Z,10.27
2019-03-28T06:10:56.270Z,8.90
2019-03-28T06:13:27.287Z,10.37
2019-03-28T06:15:57.870Z,9.57
2019-03-28T06:18:29.063Z,9.93
2019-03-28T06:21:00.457Z,9.50
2019-03-28T06:23:30.943Z,9.53
2019-03-28T06:26:01.975Z,8.30
2019-03-28T06:28:32.975Z,8.87
2019-03-28T06:31:05.971Z,8.57
2019-03-28T06:33:38.463Z,8.67
2019-03-28T06:36:09.647Z,8.67
2019-03-28T06:38:40.189Z,9.93
2019-03-28T06:41:10.980Z,8.93
2019-03-28T06:43:44.846Z,8.87
2019-03-28T06:46:17.699Z,9.60
2019-03-28T06:48:48.719Z,8.90
2019-03-28T06:51:19.227Z,8.03
2019-03-28T06:53:51.446Z,8.00
2019-03-28T06:56:24.172Z,8.03
2019-03-28T06:58:55.251Z,8.00
2019-03-28T07:01:28.564Z,7.40
2019-03-28T07:03:59.550Z,9.37
2019-03-28T07:06:30.336Z,9.83
2019-03-28T07:09:00.759Z,9.47
2019-03-28T07:11:33.493Z,10.37
2019-03-28T07:14:04.054Z,9.70
2019-03-28T07:16:34.924Z,10.67
2019-03-28T07:19:05.541Z,10.70
2019-03-28T07:21:36.888Z,9.67
2019-03-28T07:24:07.232Z,9.63
2019-03-28T07:26:38.301Z,9.87
2019-03-28T07:29:09.537Z,9.17
2019-03-28T07:31:41.613Z,9.30
2019-03-28T07:34:13.591Z,9.63
2019-03-28T07:36:44.808Z,8.47
2019-03-28T07:39:15.354Z,9.30
2019-03-28T07:41:46.234Z,9.13
2019-03-28T07:44:17.888Z,8.63
2019-03-28T07:46:48.831Z,8.03
2019-03-28T07:49:20.396Z,9.27
2019-03-28T07:51:53.969Z,9.17
2019-03-28T07:54:24.381Z,8.73
2019-03-28T07:56:55.264Z,9.17
2019-03-28T07:59:27.494Z,9.20
2019-03-28T08:01:58.081Z,9.00
2019-03-28T08:04:29.537Z,8.63
2019-03-28T08:07:00.061Z,9.43
2019-03-28T08:09:36.746Z,8.27
2019-03-28T08:12:04.765Z,7.90
2019-03-28T08:14:38.550Z,8.57
2019-03-28T08:17:09.089Z,7.73
2019-03-28T08:19:41.540Z,7.40
2019-03-28T08:22:11.883Z,6.77
2019-03-28T08:24:42.403Z,6.87
2019-03-28T08:27:13.130Z,7.20
2019-03-28T08:29:43.631Z,7.57
2019-03-28T08:32:19.843Z,8.33
2019-03-28T08:34:53.872Z,7.70
2019-03-28T08:37:28.579Z,7.83
2019-03-28T08:39:59.391Z,6.87
2019-03-28T08:42:30.593Z,7.37
2019-03-28T08:45:03.665Z,7.67
2019-03-28T08:47:36.391Z,7.13
2019-03-28T08:50:08.874Z,7.33
2019-03-28T08:52:40.127Z,7.60
2019-03-28T08:55:11.152Z,7.03
2019-03-28T08:57:41.709Z,8.07
2019-03-28T09:00:17.461Z,7.07
2019-03-28T09:02:46.255Z,9.00
2019-03-28T09:05:20.079Z,8.80
2019-03-28T09:07:50.692Z,8.20
2019-03-28T09:10:22.631Z,8.23
2019-03-28T09:12:53.292Z,8.50
2019-03-28T09:15:24.015Z,8.83
2019-03-28T09:17:54.495Z,9.57
2019-03-28T09:20:26.751Z,8.17
2019-03-28T09:23:02.459Z,7.93
2019-03-28T09:25:33.487Z,7.60
2019-03-28T09:28:04.125Z,8.47
2019-03-28T09:30:48.851Z,8.17
2019-03-28T09:33:13.391Z,8.10
2019-03-28T09:35:48.802Z,8.13
2019-03-28T09:38:19.301Z,7.60
2019-03-28T09:40:50.680Z,7.77
2019-03-28T09:43:21.254Z,7.70
2019-03-28T09:45:54.063Z,7.53
2019-03-28T09:48:24.671Z,7.33
2019-03-28T09:50:55.359Z,8.23
2019-03-28T09:53:28.692Z,8.20
2019-03-28T09:55:59.811Z,6.97
2019-03-28T09:58:30.445Z,6.10
2019-03-28T10:01:04.926Z,7.07
2019-03-28T10:03:36.720Z,6.40
2019-03-28T10:06:07.517Z,6.67
2019-03-28T10:08:37.997Z,6.77
2019-03-28T10:11:08.655Z,5.80
2019-03-28T10:13:40.435Z,8.57
2019-03-28T10:16:10.916Z,8.17
2019-03-28T10:18:41.903Z,7.67
2019-03-28T10:21:12.817Z,7.57
2019-03-28T10:23:44.350Z,7.30
2019-03-28T10:26:23.296Z,7.30
2019-03-28T10:28:53.789Z,6.93
2019-03-28T10:31:24.850Z,7.37
2019-03-28T10:33:56.530Z,7.10
2019-03-28T10:39:31.367Z,5.43
2019-03-28T10:42:02.404Z,7.00
2019-03-28T10:44:33.006Z,6.57
2019-03-28T10:47:05.007Z,6.30
2019-03-28T10:49:35.791Z,7.43
2019-03-28T10:52:07.265Z,12.00
2019-03-28T10:54:37.885Z,7.17
2019-03-28T10:57:15.421Z,7.27
2019-03-28T10:59:40.880Z,7.10
2019-03-28T11:02:12.666Z,7.00
2019-03-28T11:04:43.748Z,7.43
2019-03-28T11:07:14.289Z,7.17
2019-03-28T11:09:45.009Z,7.33
2019-03-28T11:12:16.312Z,7.37
2019-03-28T11:14:46.864Z,8.00
2019-03-28T11:17:17.457Z,7.73
2019-03-28T11:19:49.009Z,7.80
2019-03-28T11:22:19.547Z,8.47
2019-03-28T11:24:54.273Z,7.20
2019-03-28T11:27:24.897Z,7.47
2019-03-28T11:29:59.498Z,8.30
2019-03-28T11:32:30.314Z,7.57
2019-03-28T11:35:06.695Z,8.30
2019-03-28T11:37:41.863Z,7.43
2019-03-28T11:40:13.390Z,7.63
2019-03-28T11:42:44.015Z,7.20
2019-03-28T11:45:20.140Z,8.00
2019-03-28T11:47:55.885Z,8.00
2019-03-28T11:50:26.657Z,7.70
2019-03-28T11:52:59.706Z,8.30
2019-03-28T11:55:30.562Z,7.70
2019-03-28T11:58:01.557Z,7.70
2019-03-28T12:00:34.965Z,8.73
2019-03-28T12:03:06.030Z,7.80
2019-03-28T12:05:39.226Z,7.43
2019-03-28T12:08:11.849Z,7.90
2019-03-28T12:10:42.515Z,8.30
2019-03-28T12:13:16.363Z,8.07
2019-03-28T12:15:46.877Z,7.00
2019-03-28T12:18:19.437Z,6.90
2019-03-28T12:20:50.626Z,6.90
2019-03-28T12:23:24.857Z,6.60
2019-03-28T12:25:56.182Z,7.00
2019-03-28T12:28:39.189Z,7.40
2019-03-28T12:31:09.817Z,6.80
2019-03-28T12:33:42.587Z,5.10
2019-03-28T12:36:13.193Z,5.03
2019-03-28T12:38:44.420Z,5.70
2019-03-28T12:43:54.585Z,5.23
2019-03-28T12:46:26.411Z,5.73
2019-03-28T12:48:56.976Z,5.87
2019-03-28T12:51:28.408Z,5.60
2019-03-28T12:54:02.968Z,7.00
2019-03-28T12:56:35.002Z,6.20
2019-03-28T12:59:06.146Z,6.70
2019-03-28T13:01:37.113Z,6.53
2019-03-28T13:04:12.836Z,6.33
2019-03-28T13:06:46.374Z,6.03
2019-03-28T13:09:17.073Z,6.10
2019-03-28T13:11:49.878Z,6.13
2019-03-28T13:14:21.488Z,5.90
2019-03-28T13:16:52.054Z,6.00
2019-03-28T13:19:22.566Z,6.00
2019-03-28T13:21:53.205Z,5.50
2019-03-28T13:24:26.843Z,5.77
2019-03-28T13:26:58.805Z,5.57
2019-03-28T13:29:30.198Z,5.73
2019-03-28T13:32:01.764Z,6.13
2019-03-28T13:34:32.378Z,7.23
2019-03-28T13:37:03.002Z,6.03
2019-03-28T13:39:34.702Z,5.70
2019-03-28T13:42:05.622Z,5.67
2019-03-28T13:44:36.418Z,6.10
2019-03-28T13:47:07.498Z,6.27
2019-03-28T13:49:38.127Z,5.87
2019-03-28T13:52:08.777Z,5.90
2019-03-28T13:54:39.798Z,5.40
2019-03-28T13:57:11.579Z,5.60
2019-03-28T13:59:42.265Z,5.70
2019-03-28T14:02:12.915Z,5.03
2019-03-28T14:04:44.683Z,5.13
2019-03-28T14:07:18.221Z,4.97
2019-03-28T14:09:49.394Z,4.83
2019-03-28T14:12:23.206Z,5.03
2019-03-28T14:14:57.614Z,5.30
2019-03-28T14:17:28.246Z,4.53
2019-03-28T14:19:58.764Z,4.20
2019-03-28T14:22:29.893Z,3.70
2019-03-28T14:25:01.362Z,4.10
2019-03-28T14:27:32.343Z,3.77
2019-03-28T14:30:05.485Z,3.33
2019-03-28T14:32:36.703Z,3.90
2019-03-28T14:35:10.932Z,5.60
2019-03-28T14:37:41.429Z,5.50
2019-03-28T14:40:13.825Z,6.07
2019-03-28T14:42:44.803Z,6.17
2019-03-28T14:45:15.678Z,6.47
2019-03-28T14:47:52.988Z,6.63
2019-03-28T14:50:34.039Z,7.10
2019-03-28T14:53:08.135Z,7.27
2019-03-28T14:55:39.713Z,6.83
2019-03-28T14:58:10.309Z,6.87
2019-03-28T15:00:48.951Z,6.70
2019-03-28T15:03:26.091Z,7.90
2019-03-28T15:05:54.523Z,7.07
2019-03-28T15:08:44.464Z,7.27
2019-03-28T15:11:15.532Z,6.83
2019-03-28T15:13:50.873Z,6.50
2019-03-28T15:16:21.578Z,7.43
2019-03-28T15:18:56.023Z,7.50
2019-03-28T15:21:29.633Z,8.20
2019-03-28T15:24:00.959Z,7.07
2019-03-28T15:26:34.029Z,7.63
2019-03-28T15:29:04.704Z,7.43
2019-03-28T15:31:35.320Z,6.93
2019-03-28T15:34:06.264Z,6.73
2019-03-28T15:36:37.590Z,7.17
2019-03-28T15:39:10.011Z,7.03
2019-03-28T15:41:40.765Z,7.30
2019-03-28T15:44:11.961Z,6.70
2019-03-28T15:46:46.584Z,6.63
2019-03-28T15:49:17.098Z,6.30
2019-03-28T15:51:52.066Z,6.23
2019-03-28T15:54:23.540Z,5.67
2019-03-28T15:56:54.704Z,5.73
2019-03-28T15:59:25.438Z,5.57
2019-03-28T16:01:56.143Z,5.83
2019-03-28T16:04:27.026Z,5.67
2019-03-28T16:06:58.788Z,5.43
2019-03-28T16:09:29.810Z,6.33
2019-03-28T16:12:03.166Z,5.70
2019-03-28T16:14:32.917Z,5.40
2019-03-28T16:17:03.491Z,5.70
2019-03-28T16:19:37.219Z,6.27
2019-03-28T16:22:08.101Z,5.93
2019-03-28T16:24:42.005Z,5.90
2019-03-28T16:27:17.126Z,6.03
2019-03-28T16:29:47.707Z,6.40
2019-03-28T16:32:18.260Z,6.73
2019-03-28T16:34:50.157Z,7.10
2019-03-28T16:37:20.682Z,6.40
2019-03-28T16:39:54.026Z,6.53
2019-03-28T16:42:23.474Z,7.13
2019-03-28T16:44:54.054Z,7.53
2019-03-28T16:47:26.376Z,7.73
2019-03-28T16:49:57.169Z,7.00
2019-03-28T16:52:27.732Z,7.20
2019-03-28T16:55:00.926Z,6.97
2019-03-28T16:57:31.609Z,7.67
2019-03-28T17:00:02.152Z,7.57
2019-03-28T17:02:32.910Z,7.20
2019-03-28T17:05:04.223Z,7.57
2019-03-28T17:07:39.145Z,6.90
2019-03-28T17:10:13.160Z,8.07
2019-03-28T17:12:43.719Z,7.37
2019-03-28T17:15:14.381Z,7.33
2019-03-28T17:17:48.982Z,7.97
2019-03-28T17:20:18.682Z,7.90
2019-03-28T17:22:49.295Z,8.20
2019-03-28T17:25:19.957Z,7.63
2019-03-28T17:27:50.697Z,7.63
2019-03-28T17:30:21.428Z,8.27
2019-03-28T17:32:54.553Z,8.30
2019-03-28T17:35:30.028Z,8.67
2019-03-28T17:38:00.890Z,9.13
2019-03-28T17:40:31.312Z,9.37
2019-03-28T17:43:03.198Z,8.83
2019-03-28T17:45:33.872Z,8.37
2019-03-28T17:48:04.965Z,9.33
2019-03-28T17:50:35.699Z,9.33
2019-03-28T17:53:07.214Z,9.53
2019-03-28T17:55:55.775Z,10.57
2019-03-28T17:58:26.536Z,11.23
2019-03-28T18:00:57.187Z,12.40
2019-03-28T18:03:31.526Z,11.50
2019-03-28T18:06:02.901Z,10.73
2019-03-28T18:08:34.349Z,11.23
2019-03-28T18:11:05.770Z,11.67
2019-03-28T18:13:36.586Z,12.20
2019-03-28T18:16:10.014Z,11.50
2019-03-28T18:18:43.020Z,11.77
2019-03-28T18:21:14.406Z,11.93
2019-03-28T18:23:46.701Z,11.67
2019-03-28T18:26:17.445Z,13.27
2019-03-28T18:28:48.160Z,12.80
2019-03-28T18:31:19.386Z,12.17
2019-03-28T18:33:50.904Z,12.07
2019-03-28T18:36:22.022Z,13.50
2019-03-28T18:39:02.862Z,13.10
2019-03-28T18:41:27.263Z,12.20
2019-03-28T18:44:01.937Z,13.00
2019-03-28T18:46:34.929Z,12.93
2019-03-28T18:49:07.141Z,12.53
2019-03-28T18:51:40.733Z,12.57
2019-03-28T18:54:11.384Z,12.67
2019-03-28T18:56:42.493Z,12.77
2019-03-28T18:59:13.587Z,12.50
2019-03-28T19:01:44.134Z,11.33
2019-03-28T19:04:15.116Z,10.13
2019-03-28T19:06:47.959Z,12.03
2019-03-28T19:09:19.049Z,12.27
2019-03-28T19:11:50.203Z,12.83
2019-03-28T19:14:20.895Z,11.63
2019-03-28T19:16:52.306Z,12.03
2019-03-28T19:19:38.130Z,10.53
2019-03-28T19:21:57.597Z,11.43
2019-03-28T19:24:28.467Z,11.00
2019-03-28T19:26:59.105Z,11.30
2019-03-28T19:29:31.301Z,12.13
2019-03-28T19:32:04.198Z,13.00
2019-03-28T19:34:38.800Z,12.70
2019-03-28T19:37:11.151Z,11.93
2019-03-28T19:39:44.418Z,12.83
2019-03-28T19:42:14.066Z,12.03
2019-03-28T19:44:45.456Z,11.57
2019-03-28T19:47:18.445Z,12.03
2019-03-28T19:49:49.959Z,11.00
2019-03-28T19:52:24.021Z,11.57
2019-03-28T19:54:56.091Z,12.63
2019-03-28T19:57:26.675Z,13.07
2019-03-28T20:00:00.386Z,12.67
2019-03-28T20:02:32.343Z,13.63
2019-03-28T20:05:02.990Z,15.30
2019-03-28T20:07:33.590Z,14.67
2019-03-28T20:10:16.444Z,13.53
2019-03-28T20:12:39.802Z,14.03
2019-03-28T20:15:11.487Z,15.17
2019-03-28T20:17:43.873Z,14.93
2019-03-28T20:20:16.334Z,14.50
2019-03-28T20:22:47.055Z,13.03
2019-03-28T20:25:18.473Z,14.70
2019-03-28T20:27:49.927Z,14.37
2019-03-28T20:30:24.435Z,13.63
2019-03-28T20:32:54.074Z,14.60
2019-03-28T20:35:24.830Z,14.83
2019-03-28T20:37:55.535Z,14.40
2019-03-28T20:40:26.034Z,14.47
2019-03-28T20:42:57.159Z,14.60
2019-03-28T20:45:28.826Z,15.67
2019-03-28T20:47:59.397Z,14.83
2019-03-28T20:50:31.814Z,14.73
2019-03-28T20:53:02.959Z,14.63
2019-03-28T20:55:34.105Z,14.10
2019-03-28T20:58:08.037Z,14.20
2019-03-28T21:00:46.547Z,15.37
2019-03-28T21:03:18.178Z,14.70
2019-03-28T21:05:52.510Z,15.10
2019-03-28T21:08:26.444Z,15.43
2019-03-28T21:10:57.912Z,14.63
2019-03-28T21:13:30.038Z,16.33
2019-03-28T21:16:02.655Z,15.67
2019-03-28T21:18:36.486Z,16.20
2019-03-28T21:21:06.880Z,15.57
2019-03-28T21:23:37.315Z,14.50
2019-03-28T21:26:07.747Z,15.70
2019-03-28T21:28:47.219Z,15.80
2019-03-28T21:31:11.886Z,16.00
2019-03-28T21:33:42.391Z,15.90
2019-03-28T21:36:13.149Z,14.67
2019-03-28T21:38:43.832Z,14.53
2019-03-28T21:41:14.797Z,14.70
2019-03-28T21:43:47.863Z,14.77
2019-03-28T21:46:18.791Z,15.90
2019-03-28T21:48:49.290Z,15.17
2019-03-28T21:51:20.226Z,14.83
2019-03-28T21:53:51.009Z,13.93
2019-03-28T21:56:22.045Z,15.13
2019-03-28T21:58:56.222Z,15.97
2019-03-28T22:01:30.602Z,16.67
2019-03-28T22:04:01.193Z,15.13
2019-03-28T22:06:42.704Z,16.10
2019-03-28T22:09:08.276Z,16.13
2019-03-28T22:11:40.269Z,16.23
2019-03-28T22:14:10.919Z,16.53
2019-03-28T22:16:42.670Z,18.80
2019-03-28T22:19:18.021Z,18.30
2019-03-28T22:21:48.983Z,18.47
2019-03-28T22:24:20.293Z,18.90
2019-03-28T22:26:50.908Z,17.27
2019-03-28T22:29:22.304Z,17.67
2019-03-28T22:31:52.877Z,17.03
2019-03-28T22:34:25.784Z,20.60
2019-03-28T22:36:58.663Z,19.33
2019-03-28T22:39:32.757Z,21.53
2019-03-28T22:42:01.396Z,24.37
2019-03-28T22:44:34.066Z,22.10
2019-03-28T22:47:06.013Z,22.40
2019-03-28T22:49:37.001Z,22.73
2019-03-28T22:52:07.501Z,21.90
2019-03-28T22:54:39.620Z,21.17
2019-03-28T22:57:11.346Z,21.70
2019-03-28T22:59:41.917Z,20.93
2019-03-28T23:02:14.360Z,20.87
2019-03-28T23:04:44.957Z,20.17
2019-03-28T23:07:15.781Z,21.27
2019-03-28T23:09:51.519Z,21.23
2019-03-28T23:12:24.708Z,20.33
2019-03-28T23:14:58.211Z,19.83
2019-03-28T23:17:29.463Z,22.43
2019-03-28T23:20:00.658Z,20.40
2019-03-28T23:22:31.509Z,19.43
2019-03-28T23:25:02.566Z,19.50
2019-03-28T23:27:34.664Z,18.63
2019-03-28T23:30:10.875Z,17.87
2019-03-28T23:32:44.405Z,17.60
2019-03-28T23:35:15.274Z,17.93
2019-03-28T23:37:47.421Z,17.50
2019-03-28T23:40:18.764Z,17.23
2019-03-28T23:42:49.729Z,17.47
2019-03-28T23:45:20.551Z,17.53
2019-03-28T23:47:51.118Z,16.37
2019-03-28T23:50:21.617Z,17.00
2019-03-28T23:52:52.253Z,18.00
2019-03-28T23:55:23.081Z,18.47
2019-03-28T23:57:55.184Z,17.67
